Terminal Aerodrome Forecast
Issued by NWS Mt. Holly, NJ

Home | Current Version | Previous Version | Text Only | Print | Product List | Glossary On
Versions: 1 2 3 4 5 6 7 8 9 10 11 12 13 14 15 16 17 18 19 20 21 22 23
000
FTUS41 KPHI 212300
TAFPHL
TAF
KPHL 212329Z 2200/2306 29007KT P6SM SKC
     FM220400 25004KT P6SM SKC
     FM221500 23011KT P6SM SCT070
     FM230000 22005KT P6SM SCT070=

USA.gov is the U.S. government's official web portal to all federal, state and local government web resources and services.